ADDS TAF Board (Experimental) INFO

IDs: Format: Expanded Condensed

Updated at: 1715 UTC 21 Dec 2014

KJFK - New York/Kennedy Int, NY, US

Issued at 1619 UTC 21 Dec 2014
Time1651Z21/18Z21/19Z21/20Z21/21Z21/22Z21/23Z22/00Z22/01Z22/02Z22/03Z22/04Z22/05Z22/06Z
TypeOBSPRVLPRVLPRVLPRVLPRVLPRVLPRVLPRVLPRVLPRVLPRVLPRVLPRVL
VIS10>6>6>6>6>6>6>6>6>6>6>6>6>6
CIG1515151515151515151525252525
CoverOVCOVCOVCOVCOVCOVCOVCOVCOVCOVCBKNBKNBKNBKN
FltCatMVFRMVFRMVFRMVFRMVFRMVFRMVFRMVFRMVFRMVFRMVFRMVFRMVFRMVFR
WX----------------------------
WDir350340340340340340340340340340360360360360
WSpd86666666665555
WGst----------------------------
R04/22
XWnd55555555553333
HWnd64444444444444
R13/31
XWnd64444444444444
HWnd-5-5-5-5-5-5-5-5-5-5-3-3-3-3
Raw TAF
KJFK 211619Z 2116/2218 34006KT P6SM BKN015 OVC025
  FM220300 36005KT P6SM BKN025
  FM221000 VRB04KT P6SM BKN015
  FM221600 06006KT 5SM -RA BR BKN015


Raw METAR
KJFK 211651Z 35008KT 10SM OVC015 02/M03 A3031 RMK AO2 SLP262 T00221028 $

TAF Board Legend

Hazard VFR MVFR IFR LIFR
Visibility (sm) >5 3≤X≤5 1≤X<3 <1
Ceiling (100 ft) >30 10≤X≤30 5≤X<10 <5
Wind Speed (kt) <10 10≤X<20 20≤X<30 ≥30
Wind Gust (kt) <15 15≤X<25 25≤X<35 ≥35
Weather No Wx Reported VCTS,-TS,-FZRA TS,FZRA +TS,+FZRA


Page loaded:  17:15 UTC  |   09:15 AM Pacific  |   10:15 AM Mountain  |   11:15 AM Central  |   12:15 PM Eastern

 

ADVISORIES

FORECASTS

FORECASTS

OBSERVATIONS

USER TOOLS

ABOUT US